sensor_id;sensor_type;location;lat;lon;timestamp;temperature;humidity
23556;DHT22;11956;53.184;8.578;2023-03-05T00:02:19;3.60;99.90
23556;DHT22;11956;53.184;8.578;2023-03-05T00:05:20;3.50;99.90
23556;DHT22;11956;53.184;8.578;2023-03-05T00:08:21;3.60;99.90
23556;DHT22;11956;53.184;8.578;2023-03-05T00:11:22;3.60;99.90
23556;DHT22;11956;53.184;8.578;2023-03-05T00:14:27;3.60;99.90
23556;DHT22;11956;53.184;8.578;2023-03-05T00:17:28;3.70;99.90
23556;DHT22;11956;53.184;8.578;2023-03-05T00:20:29;3.70;99.90
23556;DHT22;11956;53.184;8.578;2023-03-05T00:23:30;3.70;99.90
23556;DHT22;11956;53.184;8.578;2023-03-05T00:26:33;3.60;99.90
23556;DHT22;11956;53.184;8.578;2023-03-05T00:29:35;3.60;99.90
23556;DHT22;11956;53.184;8.578;2023-03-05T00:32:36;3.70;99.90
23556;DHT22;11956;53.184;8.578;2023-03-05T00:35:44;3.70;99.90
23556;DHT22;11956;53.184;8.578;2023-03-05T00:38:45;3.70;99.90
23556;DHT22;11956;53.184;8.578;2023-03-05T00:41:47;3.70;99.90
23556;DHT22;11956;53.184;8.578;2023-03-05T00:44:48;3.60;99.90
23556;DHT22;11956;53.184;8.578;2023-03-05T00:47:48;3.50;99.90
23556;DHT22;11956;53.184;8.578;2023-03-05T00:50:49;3.40;99.90
23556;DHT22;11956;53.184;8.578;2023-03-05T00:53:51;3.40;99.90
23556;DHT22;11956;53.184;8.578;2023-03-05T00:56:51;3.40;99.90
23556;DHT22;11956;53.184;8.578;2023-03-05T00:59:52;3.40;99.90
23556;DHT22;11956;53.184;8.578;2023-03-05T01:02:53;3.40;99.90
23556;DHT22;11956;53.184;8.578;2023-03-05T01:05:55;3.40;99.90
23556;DHT22;11956;53.184;8.578;2023-03-05T01:08:55;3.30;99.90
23556;DHT22;11956;53.184;8.578;2023-03-05T01:11:57;3.40;99.90
23556;DHT22;11956;53.184;8.578;2023-03-05T01:14:59;3.30;99.90
23556;DHT22;11956;53.184;8.578;2023-03-05T01:18:00;3.30;99.90
23556;DHT22;11956;53.184;8.578;2023-03-05T01:21:02;3.30;99.90
23556;DHT22;11956;53.184;8.578;2023-03-05T01:24:04;3.30;99.90
23556;DHT22;11956;53.184;8.578;2023-03-05T01:27:05;3.20;99.90
23556;DHT22;11956;53.184;8.578;2023-03-05T01:30:07;3.20;99.90
23556;DHT22;11956;53.184;8.578;2023-03-05T01:33:10;3.20;99.90
23556;DHT22;11956;53.184;8.578;2023-03-05T01:36:13;3.30;99.90
23556;DHT22;11956;53.184;8.578;2023-03-05T01:39:16;3.30;99.90
23556;DHT22;11956;53.184;8.578;2023-03-05T01:42:17;3.30;99.90
23556;DHT22;11956;53.184;8.578;2023-03-05T01:45:20;3.30;99.90
23556;DHT22;11956;53.184;8.578;2023-03-05T01:48:21;3.20;99.90
23556;DHT22;11956;53.184;8.578;2023-03-05T01:51:25;3.10;99.90
23556;DHT22;11956;53.184;8.578;2023-03-05T01:54:32;3.10;99.90
23556;DHT22;11956;53.184;8.578;2023-03-05T02:00:49;3.10;99.90
23556;DHT22;11956;53.184;8.578;2023-03-05T02:03:52;3.10;99.90
23556;DHT22;11956;53.184;8.578;2023-03-05T02:06:53;3.10;99.90
23556;DHT22;11956;53.184;8.578;2023-03-05T02:09:54;3.20;99.90
23556;DHT22;11956;53.184;8.578;2023-03-05T02:12:58;3.20;99.90
23556;DHT22;11956;53.184;8.578;2023-03-05T02:16:01;3.30;99.90
23556;DHT22;11956;53.184;8.578;2023-03-05T02:19:08;3.30;99.90
23556;DHT22;11956;53.184;8.578;2023-03-05T02:22:14;3.30;99.90
23556;DHT22;11956;53.184;8.578;2023-03-05T02:25:24;3.20;99.90
23556;DHT22;11956;53.184;8.578;2023-03-05T02:28:48;3.20;99.90
23556;DHT22;11956;53.184;8.578;2023-03-05T02:31:52;3.20;99.90
23556;DHT22;11956;53.184;8.578;2023-03-05T02:34:53;3.20;99.90
23556;DHT22;11956;53.184;8.578;2023-03-05T02:37:54;3.20;99.90
23556;DHT22;11956;53.184;8.578;2023-03-05T02:40:55;3.30;99.90
23556;DHT22;11956;53.184;8.578;2023-03-05T02:43:56;3.30;99.90
23556;DHT22;11956;53.184;8.578;2023-03-05T02:46:57;3.30;99.90
23556;DHT22;11956;53.184;8.578;2023-03-05T02:49:59;3.20;99.90
23556;DHT22;11956;53.184;8.578;2023-03-05T02:53:00;3.10;99.90
23556;DHT22;11956;53.184;8.578;2023-03-05T02:56:02;3.10;99.90
23556;DHT22;11956;53.184;8.578;2023-03-05T02:59:07;3.10;99.90
23556;DHT22;11956;53.184;8.578;2023-03-05T03:02:08;3.10;99.90
23556;DHT22;11956;53.184;8.578;2023-03-05T03:05:09;3.10;99.90
23556;DHT22;11956;53.184;8.578;2023-03-05T03:08:10;3.20;99.90
23556;DHT22;11956;53.184;8.578;2023-03-05T03:11:11;3.20;99.90
23556;DHT22;11956;53.184;8.578;2023-03-05T03:14:13;3.20;99.90
23556;DHT22;11956;53.184;8.578;2023-03-05T03:17:16;3.20;99.90
23556;DHT22;11956;53.184;8.578;2023-03-05T03:20:18;3.20;99.90
23556;DHT22;11956;53.184;8.578;2023-03-05T03:23:19;3.20;99.90
23556;DHT22;11956;53.184;8.578;2023-03-05T03:26:20;3.30;99.90
23556;DHT22;11956;53.184;8.578;2023-03-05T03:29:21;3.30;99.90
23556;DHT22;11956;53.184;8.578;2023-03-05T03:32:21;3.20;99.90
23556;DHT22;11956;53.184;8.578;2023-03-05T03:35:22;3.20;99.90
23556;DHT22;11956;53.184;8.578;2023-03-05T03:38:23;3.00;99.90
23556;DHT22;11956;53.184;8.578;2023-03-05T03:41:24;2.90;99.90
23556;DHT22;11956;53.184;8.578;2023-03-05T03:44:25;2.80;99.90
23556;DHT22;11956;53.184;8.578;2023-03-05T03:47:26;2.90;99.90
23556;DHT22;11956;53.184;8.578;2023-03-05T03:50:27;2.80;99.90
23556;DHT22;11956;53.184;8.578;2023-03-05T03:53:28;2.90;99.90
23556;DHT22;11956;53.184;8.578;2023-03-05T03:56:29;2.90;99.90
23556;DHT22;11956;53.184;8.578;2023-03-05T03:59:30;3.00;99.90
23556;DHT22;11956;53.184;8.578;2023-03-05T04:02:31;3.00;99.90
23556;DHT22;11956;53.184;8.578;2023-03-05T04:05:32;3.00;99.90
23556;DHT22;11956;53.184;8.578;2023-03-05T04:08:33;3.00;99.90
23556;DHT22;11956;53.184;8.578;2023-03-05T04:11:35;2.90;99.90
23556;DHT22;11956;53.184;8.578;2023-03-05T04:14:37;2.90;99.90
23556;DHT22;11956;53.184;8.578;2023-03-05T04:17:37;2.80;99.90
23556;DHT22;11956;53.184;8.578;2023-03-05T04:20:38;2.70;99.90
23556;DHT22;11956;53.184;8.578;2023-03-05T04:23:39;2.60;99.90
23556;DHT22;11956;53.184;8.578;2023-03-05T04:26:40;2.50;99.90
23556;DHT22;11956;53.184;8.578;2023-03-05T04:29:41;2.50;99.90
23556;DHT22;11956;53.184;8.578;2023-03-05T04:32:42;2.60;99.90
23556;DHT22;11956;53.184;8.578;2023-03-05T04:35:43;2.60;99.90
23556;DHT22;11956;53.184;8.578;2023-03-05T04:38:44;2.60;99.90
23556;DHT22;11956;53.184;8.578;2023-03-05T04:41:48;2.70;99.90
23556;DHT22;11956;53.184;8.578;2023-03-05T04:44:50;2.70;99.90
23556;DHT22;11956;53.184;8.578;2023-03-05T04:47:51;2.70;99.90
23556;DHT22;11956;53.184;8.578;2023-03-05T04:50:52;2.80;99.90
23556;DHT22;11956;53.184;8.578;2023-03-05T04:53:53;2.80;99.90
23556;DHT22;11956;53.184;8.578;2023-03-05T04:56:53;2.90;99.90
23556;DHT22;11956;53.184;8.578;2023-03-05T04:59:54;2.90;99.90
23556;DHT22;11956;53.184;8.578;2023-03-05T05:02:55;2.90;99.90
23556;DHT22;11956;53.184;8.578;2023-03-05T05:05:57;2.90;99.90
23556;DHT22;11956;53.184;8.578;2023-03-05T05:08:59;2.90;99.90
23556;DHT22;11956;53.184;8.578;2023-03-05T05:12:00;2.80;99.90
23556;DHT22;11956;53.184;8.578;2023-03-05T05:15:02;2.80;99.90
23556;DHT22;11956;53.184;8.578;2023-03-05T05:18:03;2.70;99.90
23556;DHT22;11956;53.184;8.578;2023-03-05T05:21:13;2.70;99.90
23556;DHT22;11956;53.184;8.578;2023-03-05T05:24:14;2.70;99.90
23556;DHT22;11956;53.184;8.578;2023-03-05T05:27:15;2.60;99.90
23556;DHT22;11956;53.184;8.578;2023-03-05T05:30:15;2.70;99.90
23556;DHT22;11956;53.184;8.578;2023-03-05T05:33:16;2.70;99.90
23556;DHT22;11956;53.184;8.578;2023-03-05T05:36:18;2.70;99.90
23556;DHT22;11956;53.184;8.578;2023-03-05T05:39:21;2.60;99.90
23556;DHT22;11956;53.184;8.578;2023-03-05T05:42:23;2.60;99.90
23556;DHT22;11956;53.184;8.578;2023-03-05T05:45:24;2.60;99.90
23556;DHT22;11956;53.184;8.578;2023-03-05T05:48:27;2.50;99.90
23556;DHT22;11956;53.184;8.578;2023-03-05T05:51:31;2.50;99.90
23556;DHT22;11956;53.184;8.578;2023-03-05T05:54:33;2.40;99.90
23556;DHT22;11956;53.184;8.578;2023-03-05T05:57:34;2.30;99.90
23556;DHT22;11956;53.184;8.578;2023-03-05T06:00:35;2.30;99.90
23556;DHT22;11956;53.184;8.578;2023-03-05T06:03:35;2.20;99.90
23556;DHT22;11956;53.184;8.578;2023-03-05T06:06:36;2.20;99.90
23556;DHT22;11956;53.184;8.578;2023-03-05T06:09:37;2.20;99.90
23556;DHT22;11956;53.184;8.578;2023-03-05T06:12:38;2.20;99.90
23556;DHT22;11956;53.184;8.578;2023-03-05T06:15:40;2.20;99.90
23556;DHT22;11956;53.184;8.578;2023-03-05T06:18:41;2.30;99.90
23556;DHT22;11956;53.184;8.578;2023-03-05T06:21:43;2.30;99.90
23556;DHT22;11956;53.184;8.578;2023-03-05T06:24:43;2.40;99.90
23556;DHT22;11956;53.184;8.578;2023-03-05T06:27:44;2.50;99.90
23556;DHT22;11956;53.184;8.578;2023-03-05T06:30:45;2.50;99.90
23556;DHT22;11956;53.184;8.578;2023-03-05T06:33:47;2.60;99.90
23556;DHT22;11956;53.184;8.578;2023-03-05T06:36:49;2.60;99.90
23556;DHT22;11956;53.184;8.578;2023-03-05T06:39:50;2.60;99.90
23556;DHT22;11956;53.184;8.578;2023-03-05T06:42:52;2.60;99.90
23556;DHT22;11956;53.184;8.578;2023-03-05T06:46:07;2.60;99.90
23556;DHT22;11956;53.184;8.578;2023-03-05T06:49:10;2.70;99.90
23556;DHT22;11956;53.184;8.578;2023-03-05T06:52:11;2.80;99.90
23556;DHT22;11956;53.184;8.578;2023-03-05T06:55:12;2.80;99.90
23556;DHT22;11956;53.184;8.578;2023-03-05T06:58:13;2.90;99.90
23556;DHT22;11956;53.184;8.578;2023-03-05T07:01:14;2.80;99.90
23556;DHT22;11956;53.184;8.578;2023-03-05T07:04:16;2.90;99.90
23556;DHT22;11956;53.184;8.578;2023-03-05T07:07:17;3.00;99.90
23556;DHT22;11956;53.184;8.578;2023-03-05T07:10:18;3.10;99.90
23556;DHT22;11956;53.184;8.578;2023-03-05T07:13:20;3.20;99.90
23556;DHT22;11956;53.184;8.578;2023-03-05T07:16:31;3.20;99.90
23556;DHT22;11956;53.184;8.578;2023-03-05T07:19:34;3.30;99.90
23556;DHT22;11956;53.184;8.578;2023-03-05T07:22:36;3.30;99.90
23556;DHT22;11956;53.184;8.578;2023-03-05T07:25:38;3.50;99.90
23556;DHT22;11956;53.184;8.578;2023-03-05T07:28:40;3.50;99.90
23556;DHT22;11956;53.184;8.578;2023-03-05T07:31:42;3.50;99.90
23556;DHT22;11956;53.184;8.578;2023-03-05T07:34:44;3.40;99.90
23556;DHT22;11956;53.184;8.578;2023-03-05T07:37:45;3.40;99.90
23556;DHT22;11956;53.184;8.578;2023-03-05T07:40:47;3.40;99.90
23556;DHT22;11956;53.184;8.578;2023-03-05T07:43:52;3.50;99.90
23556;DHT22;11956;53.184;8.578;2023-03-05T07:46:53;3.60;99.90
23556;DHT22;11956;53.184;8.578;2023-03-05T07:49:54;3.70;99.90
23556;DHT22;11956;53.184;8.578;2023-03-05T07:52:55;3.70;99.90
23556;DHT22;11956;53.184;8.578;2023-03-05T07:55:56;3.60;99.90
23556;DHT22;11956;53.184;8.578;2023-03-05T07:59:04;3.70;99.90
23556;DHT22;11956;53.184;8.578;2023-03-05T08:02:13;3.70;99.90
23556;DHT22;11956;53.184;8.578;2023-03-05T08:05:14;3.70;99.90
23556;DHT22;11956;53.184;8.578;2023-03-05T08:08:15;3.60;99.90
23556;DHT22;11956;53.184;8.578;2023-03-05T08:11:17;3.80;99.90
23556;DHT22;11956;53.184;8.578;2023-03-05T08:14:18;4.10;99.90
23556;DHT22;11956;53.184;8.578;2023-03-05T08:17:18;4.70;99.90
23556;DHT22;11956;53.184;8.578;2023-03-05T08:20:19;5.60;99.90
23556;DHT22;11956;53.184;8.578;2023-03-05T08:23:20;6.50;99.90
23556;DHT22;11956;53.184;8.578;2023-03-05T08:26:22;8.70;99.90
23556;DHT22;11956;53.184;8.578;2023-03-05T08:29:24;9.00;99.90
23556;DHT22;11956;53.184;8.578;2023-03-05T08:32:26;8.50;99.90
23556;DHT22;11956;53.184;8.578;2023-03-05T08:35:26;7.90;99.90
23556;DHT22;11956;53.184;8.578;2023-03-05T08:38:27;7.50;99.90
23556;DHT22;11956;53.184;8.578;2023-03-05T08:41:28;6.90;99.90
23556;DHT22;11956;53.184;8.578;2023-03-05T08:44:29;6.70;99.90
23556;DHT22;11956;53.184;8.578;2023-03-05T08:47:30;6.50;99.90
23556;DHT22;11956;53.184;8.578;2023-03-05T08:50:31;6.00;99.90
23556;DHT22;11956;53.184;8.578;2023-03-05T08:53:32;5.80;99.90
23556;DHT22;11956;53.184;8.578;2023-03-05T08:56:33;5.40;99.90
23556;DHT22;11956;53.184;8.578;2023-03-05T08:59:34;5.00;99.90
23556;DHT22;11956;53.184;8.578;2023-03-05T09:02:36;4.80;99.90
23556;DHT22;11956;53.184;8.578;2023-03-05T09:05:37;4.80;99.90
23556;DHT22;11956;53.184;8.578;2023-03-05T09:08:38;4.60;99.90
23556;DHT22;11956;53.184;8.578;2023-03-05T09:11:39;4.60;99.90
23556;DHT22;11956;53.184;8.578;2023-03-05T09:14:40;4.60;99.90
23556;DHT22;11956;53.184;8.578;2023-03-05T09:17:41;4.60;99.90
23556;DHT22;11956;53.184;8.578;2023-03-05T09:20:42;4.90;99.90
23556;DHT22;11956;53.184;8.578;2023-03-05T09:23:44;5.20;99.90
23556;DHT22;11956;53.184;8.578;2023-03-05T09:26:46;6.00;99.90
23556;DHT22;11956;53.184;8.578;2023-03-05T09:32:56;7.30;99.90
23556;DHT22;11956;53.184;8.578;2023-03-05T09:35:58;7.60;99.90
23556;DHT22;11956;53.184;8.578;2023-03-05T09:38:59;8.30;99.90
23556;DHT22;11956;53.184;8.578;2023-03-05T09:46:12;9.20;99.90
23556;DHT22;11956;53.184;8.578;2023-03-05T09:49:53;11.30;99.90
23556;DHT22;11956;53.184;8.578;2023-03-05T09:56:35;12.40;99.90
23556;DHT22;11956;53.184;8.578;2023-03-05T10:00:00;11.80;99.90
23556;DHT22;11956;53.184;8.578;2023-03-05T10:03:24;11.20;99.90
23556;DHT22;11956;53.184;8.578;2023-03-05T10:06:35;10.70;99.90
23556;DHT22;11956;53.184;8.578;2023-03-05T10:13:24;12.00;99.90
23556;DHT22;11956;53.184;8.578;2023-03-05T10:16:45;11.50;99.90
23556;DHT22;11956;53.184;8.578;2023-03-05T10:23:24;9.60;99.90
23556;DHT22;11956;53.184;8.578;2023-03-05T10:33:33;7.10;99.90
23556;DHT22;11956;53.184;8.578;2023-03-05T10:40:53;6.70;99.90
23556;DHT22;11956;53.184;8.578;2023-03-05T10:44:00;6.60;99.90
23556;DHT22;11956;53.184;8.578;2023-03-05T10:47:15;6.40;99.90
23556;DHT22;11956;53.184;8.578;2023-03-05T10:50:27;6.20;99.90
23556;DHT22;11956;53.184;8.578;2023-03-05T10:53:39;6.10;99.90
23556;DHT22;11956;53.184;8.578;2023-03-05T11:00:16;6.30;99.90
23556;DHT22;11956;53.184;8.578;2023-03-05T11:03:19;6.30;99.90
23556;DHT22;11956;53.184;8.578;2023-03-05T11:06:41;6.20;99.90
23556;DHT22;11956;53.184;8.578;2023-03-05T11:13:22;5.20;99.90
23556;DHT22;11956;53.184;8.578;2023-03-05T11:16:31;4.40;99.90
23556;DHT22;11956;53.184;8.578;2023-03-05T11:19:33;4.20;99.90
23556;DHT22;11956;53.184;8.578;2023-03-05T11:22:34;4.00;99.90
23556;DHT22;11956;53.184;8.578;2023-03-05T11:25:59;4.00;99.90
23556;DHT22;11956;53.184;8.578;2023-03-05T11:29:02;4.20;99.90
23556;DHT22;11956;53.184;8.578;2023-03-05T11:35:30;4.80;99.90
23556;DHT22;11956;53.184;8.578;2023-03-05T11:38:46;4.90;99.90
23556;DHT22;11956;53.184;8.578;2023-03-05T11:41:58;5.20;99.90
23556;DHT22;11956;53.184;8.578;2023-03-05T11:45:04;5.30;99.90
23556;DHT22;11956;53.184;8.578;2023-03-05T11:48:19;5.40;99.90
23556;DHT22;11956;53.184;8.578;2023-03-05T11:51:25;5.20;99.90
23556;DHT22;11956;53.184;8.578;2023-03-05T11:54:41;5.20;99.90
23556;DHT22;11956;53.184;8.578;2023-03-05T11:57:51;5.30;99.90
23556;DHT22;11956;53.184;8.578;2023-03-05T12:00:58;5.40;99.90
23556;DHT22;11956;53.184;8.578;2023-03-05T12:04:00;5.80;99.90
23556;DHT22;11956;53.184;8.578;2023-03-05T12:07:03;6.10;99.90
23556;DHT22;11956;53.184;8.578;2023-03-05T12:10:04;6.60;99.90
23556;DHT22;11956;53.184;8.578;2023-03-05T12:16:42;7.50;99.90
23556;DHT22;11956;53.184;8.578;2023-03-05T12:20:05;7.60;99.90
23556;DHT22;11956;53.184;8.578;2023-03-05T12:23:17;7.50;99.90
23556;DHT22;11956;53.184;8.578;2023-03-05T12:29:52;7.70;99.90
23556;DHT22;11956;53.184;8.578;2023-03-05T12:32:54;7.70;99.90
23556;DHT22;11956;53.184;8.578;2023-03-05T12:42:57;7.70;99.90
23556;DHT22;11956;53.184;8.578;2023-03-05T12:46:26;7.70;99.90
23556;DHT22;11956;53.184;8.578;2023-03-05T12:49:38;7.70;99.90
23556;DHT22;11956;53.184;8.578;2023-03-05T12:52:46;7.70;99.90
23556;DHT22;11956;53.184;8.578;2023-03-05T12:56:25;7.50;99.90
23556;DHT22;11956;53.184;8.578;2023-03-05T12:59:53;7.40;99.90
23556;DHT22;11956;53.184;8.578;2023-03-05T13:02:58;7.60;99.90
23556;DHT22;11956;53.184;8.578;2023-03-05T13:06:00;8.00;99.90
23556;DHT22;11956;53.184;8.578;2023-03-05T13:09:14;8.10;99.90
23556;DHT22;11956;53.184;8.578;2023-03-05T13:12:23;7.80;99.90
23556;DHT22;11956;53.184;8.578;2023-03-05T13:15:29;7.40;99.90
23556;DHT22;11956;53.184;8.578;2023-03-05T13:18:34;6.70;99.90
23556;DHT22;11956;53.184;8.578;2023-03-05T13:22:10;6.50;99.90
23556;DHT22;11956;53.184;8.578;2023-03-05T13:25:16;6.70;99.90
23556;DHT22;11956;53.184;8.578;2023-03-05T13:28:30;6.80;99.90
23556;DHT22;11956;53.184;8.578;2023-03-05T13:31:45;6.80;99.90
23556;DHT22;11956;53.184;8.578;2023-03-05T13:34:57;6.70;99.90
23556;DHT22;11956;53.184;8.578;2023-03-05T13:38:00;6.70;99.90
23556;DHT22;11956;53.184;8.578;2023-03-05T13:44:20;6.60;99.90
23556;DHT22;11956;53.184;8.578;2023-03-05T13:47:59;6.60;99.90
23556;DHT22;11956;53.184;8.578;2023-03-05T13:51:16;6.90;99.90
23556;DHT22;11956;53.184;8.578;2023-03-05T13:54:39;6.80;99.90
23556;DHT22;11956;53.184;8.578;2023-03-05T13:57:46;6.80;99.90
23556;DHT22;11956;53.184;8.578;2023-03-05T14:01:02;7.00;99.90
23556;DHT22;11956;53.184;8.578;2023-03-05T14:04:37;7.10;99.90
23556;DHT22;11956;53.184;8.578;2023-03-05T14:07:41;7.40;99.90
23556;DHT22;11956;53.184;8.578;2023-03-05T14:10:42;7.70;99.90
23556;DHT22;11956;53.184;8.578;2023-03-05T14:13:45;8.00;99.90
23556;DHT22;11956;53.184;8.578;2023-03-05T14:16:46;8.10;99.90
23556;DHT22;11956;53.184;8.578;2023-03-05T14:19:47;8.10;99.90
23556;DHT22;11956;53.184;8.578;2023-03-05T14:22:59;7.90;99.90
23556;DHT22;11956;53.184;8.578;2023-03-05T14:29:35;7.10;99.90
23556;DHT22;11956;53.184;8.578;2023-03-05T14:32:44;6.70;99.90
23556;DHT22;11956;53.184;8.578;2023-03-05T14:35:47;5.80;99.90
23556;DHT22;11956;53.184;8.578;2023-03-05T14:38:49;5.10;99.90
23556;DHT22;11956;53.184;8.578;2023-03-05T14:41:51;4.70;99.90
23556;DHT22;11956;53.184;8.578;2023-03-05T14:44:54;4.60;99.90
23556;DHT22;11956;53.184;8.578;2023-03-05T14:47:59;4.60;99.90
23556;DHT22;11956;53.184;8.578;2023-03-05T14:51:02;4.80;99.90
23556;DHT22;11956;53.184;8.578;2023-03-05T14:54:04;5.00;99.90
23556;DHT22;11956;53.184;8.578;2023-03-05T14:57:14;5.20;99.90
23556;DHT22;11956;53.184;8.578;2023-03-05T15:00:21;5.40;99.90
23556;DHT22;11956;53.184;8.578;2023-03-05T15:03:25;5.40;99.90
23556;DHT22;11956;53.184;8.578;2023-03-05T15:06:33;5.50;99.90
23556;DHT22;11956;53.184;8.578;2023-03-05T15:09:46;5.70;99.90
23556;DHT22;11956;53.184;8.578;2023-03-05T15:12:48;5.80;99.90
23556;DHT22;11956;53.184;8.578;2023-03-05T15:15:53;5.90;99.90
23556;DHT22;11956;53.184;8.578;2023-03-05T15:18:54;5.80;99.90
23556;DHT22;11956;53.184;8.578;2023-03-05T15:21:56;5.60;99.90
23556;DHT22;11956;53.184;8.578;2023-03-05T15:24:57;5.30;99.90
23556;DHT22;11956;53.184;8.578;2023-03-05T15:28:01;5.30;99.90
23556;DHT22;11956;53.184;8.578;2023-03-05T15:31:07;5.00;99.90
23556;DHT22;11956;53.184;8.578;2023-03-05T15:34:08;5.20;99.90
23556;DHT22;11956;53.184;8.578;2023-03-05T15:37:12;5.20;99.90
23556;DHT22;11956;53.184;8.578;2023-03-05T15:40:14;5.20;99.90
23556;DHT22;11956;53.184;8.578;2023-03-05T15:43:18;5.20;99.90
23556;DHT22;11956;53.184;8.578;2023-03-05T15:46:19;5.30;99.90
23556;DHT22;11956;53.184;8.578;2023-03-05T15:49:20;5.40;99.90
23556;DHT22;11956;53.184;8.578;2023-03-05T15:52:22;5.30;99.90
23556;DHT22;11956;53.184;8.578;2023-03-05T15:55:23;5.40;99.90
23556;DHT22;11956;53.184;8.578;2023-03-05T15:58:25;5.40;99.90
23556;DHT22;11956;53.184;8.578;2023-03-05T16:01:26;5.50;99.90
23556;DHT22;11956;53.184;8.578;2023-03-05T16:04:27;5.60;99.90
23556;DHT22;11956;53.184;8.578;2023-03-05T16:07:32;5.60;99.90
23556;DHT22;11956;53.184;8.578;2023-03-05T16:10:36;5.70;99.90
23556;DHT22;11956;53.184;8.578;2023-03-05T16:13:39;5.70;99.90
23556;DHT22;11956;53.184;8.578;2023-03-05T16:16:41;5.80;99.90
23556;DHT22;11956;53.184;8.578;2023-03-05T16:19:44;5.70;99.90
23556;DHT22;11956;53.184;8.578;2023-03-05T16:22:46;5.70;99.90
23556;DHT22;11956;53.184;8.578;2023-03-05T16:25:48;5.70;99.90
23556;DHT22;11956;53.184;8.578;2023-03-05T16:28:50;5.70;99.90
23556;DHT22;11956;53.184;8.578;2023-03-05T16:31:51;5.70;99.90
23556;DHT22;11956;53.184;8.578;2023-03-05T16:34:52;5.60;99.90
23556;DHT22;11956;53.184;8.578;2023-03-05T16:37:53;5.50;99.90
23556;DHT22;11956;53.184;8.578;2023-03-05T16:40:54;5.40;99.90
23556;DHT22;11956;53.184;8.578;2023-03-05T16:43:55;5.40;99.90
23556;DHT22;11956;53.184;8.578;2023-03-05T16:46:56;5.40;99.90
23556;DHT22;11956;53.184;8.578;2023-03-05T16:49:57;5.50;99.90
23556;DHT22;11956;53.184;8.578;2023-03-05T16:52:58;5.50;99.90
23556;DHT22;11956;53.184;8.578;2023-03-05T16:56:01;5.50;99.90
23556;DHT22;11956;53.184;8.578;2023-03-05T16:59:06;5.50;99.90
23556;DHT22;11956;53.184;8.578;2023-03-05T17:02:07;5.30;99.90
23556;DHT22;11956;53.184;8.578;2023-03-05T17:05:08;5.30;99.90
23556;DHT22;11956;53.184;8.578;2023-03-05T17:08:09;5.30;99.90
23556;DHT22;11956;53.184;8.578;2023-03-05T17:11:10;5.20;99.90
23556;DHT22;11956;53.184;8.578;2023-03-05T17:14:11;5.10;99.90
23556;DHT22;11956;53.184;8.578;2023-03-05T17:17:13;5.10;99.90
23556;DHT22;11956;53.184;8.578;2023-03-05T17:20:14;5.10;99.90
23556;DHT22;11956;53.184;8.578;2023-03-05T17:23:15;5.00;99.90
23556;DHT22;11956;53.184;8.578;2023-03-05T17:26:18;5.00;99.90
23556;DHT22;11956;53.184;8.578;2023-03-05T17:29:19;5.00;99.90
23556;DHT22;11956;53.184;8.578;2023-03-05T17:32:21;4.90;99.90
23556;DHT22;11956;53.184;8.578;2023-03-05T17:35:22;4.90;99.90
23556;DHT22;11956;53.184;8.578;2023-03-05T17:38:24;4.80;99.90
23556;DHT22;11956;53.184;8.578;2023-03-05T17:41:25;4.80;99.90
23556;DHT22;11956;53.184;8.578;2023-03-05T17:44:26;4.80;99.90
23556;DHT22;11956;53.184;8.578;2023-03-05T17:47:27;4.80;99.90
23556;DHT22;11956;53.184;8.578;2023-03-05T17:50:32;4.70;99.90
23556;DHT22;11956;53.184;8.578;2023-03-05T17:53:33;4.80;99.90
23556;DHT22;11956;53.184;8.578;2023-03-05T17:56:34;4.80;99.90
23556;DHT22;11956;53.184;8.578;2023-03-05T17:59:35;4.70;99.90
23556;DHT22;11956;53.184;8.578;2023-03-05T18:02:36;4.70;99.90
23556;DHT22;11956;53.184;8.578;2023-03-05T18:05:37;4.80;99.90
23556;DHT22;11956;53.184;8.578;2023-03-05T18:08:38;4.80;99.90
23556;DHT22;11956;53.184;8.578;2023-03-05T18:11:39;4.90;99.90
23556;DHT22;11956;53.184;8.578;2023-03-05T18:14:40;4.80;99.90
23556;DHT22;11956;53.184;8.578;2023-03-05T18:17:41;4.90;99.90
23556;DHT22;11956;53.184;8.578;2023-03-05T18:20:43;4.90;99.90
23556;DHT22;11956;53.184;8.578;2023-03-05T18:23:44;4.80;99.90
23556;DHT22;11956;53.184;8.578;2023-03-05T18:26:45;4.80;99.90
23556;DHT22;11956;53.184;8.578;2023-03-05T18:29:46;4.70;99.90
23556;DHT22;11956;53.184;8.578;2023-03-05T18:32:46;4.80;99.90
23556;DHT22;11956;53.184;8.578;2023-03-05T18:35:49;4.80;99.90
23556;DHT22;11956;53.184;8.578;2023-03-05T18:38:53;4.70;99.90
23556;DHT22;11956;53.184;8.578;2023-03-05T18:41:55;4.70;99.90
23556;DHT22;11956;53.184;8.578;2023-03-05T18:44:55;4.70;99.90
23556;DHT22;11956;53.184;8.578;2023-03-05T18:47:56;4.60;99.90
23556;DHT22;11956;53.184;8.578;2023-03-05T18:50:57;4.70;99.90
23556;DHT22;11956;53.184;8.578;2023-03-05T18:53:58;4.70;99.90
23556;DHT22;11956;53.184;8.578;2023-03-05T18:56:59;4.60;99.90
23556;DHT22;11956;53.184;8.578;2023-03-05T19:00:00;4.60;99.90
23556;DHT22;11956;53.184;8.578;2023-03-05T19:03:02;4.70;99.90
23556;DHT22;11956;53.184;8.578;2023-03-05T19:06:06;4.70;99.90
23556;DHT22;11956;53.184;8.578;2023-03-05T19:09:07;4.70;99.90
23556;DHT22;11956;53.184;8.578;2023-03-05T19:12:24;4.70;99.90
23556;DHT22;11956;53.184;8.578;2023-03-05T19:15:40;4.70;99.90
23556;DHT22;11956;53.184;8.578;2023-03-05T19:18:50;4.70;99.90
23556;DHT22;11956;53.184;8.578;2023-03-05T19:22:05;4.70;99.90
23556;DHT22;11956;53.184;8.578;2023-03-05T19:25:07;4.60;99.90
23556;DHT22;11956;53.184;8.578;2023-03-05T19:28:09;4.70;99.90
23556;DHT22;11956;53.184;8.578;2023-03-05T19:31:12;4.60;99.90
23556;DHT22;11956;53.184;8.578;2023-03-05T19:34:14;4.60;99.90
23556;DHT22;11956;53.184;8.578;2023-03-05T19:37:15;4.60;99.90
23556;DHT22;11956;53.184;8.578;2023-03-05T19:40:17;4.60;99.90
23556;DHT22;11956;53.184;8.578;2023-03-05T19:43:18;4.60;99.90
23556;DHT22;11956;53.184;8.578;2023-03-05T19:46:19;4.60;99.90
23556;DHT22;11956;53.184;8.578;2023-03-05T19:49:20;4.60;99.90
23556;DHT22;11956;53.184;8.578;2023-03-05T19:52:21;4.60;99.90
23556;DHT22;11956;53.184;8.578;2023-03-05T19:55:22;4.70;99.90
23556;DHT22;11956;53.184;8.578;2023-03-05T19:58:23;4.60;99.90
23556;DHT22;11956;53.184;8.578;2023-03-05T20:01:26;4.60;99.90
23556;DHT22;11956;53.184;8.578;2023-03-05T20:04:26;4.60;99.90
23556;DHT22;11956;53.184;8.578;2023-03-05T20:07:27;4.60;99.90
23556;DHT22;11956;53.184;8.578;2023-03-05T20:10:28;4.60;99.90
23556;DHT22;11956;53.184;8.578;2023-03-05T20:13:29;4.60;99.90
23556;DHT22;11956;53.184;8.578;2023-03-05T20:16:32;4.50;99.90
23556;DHT22;11956;53.184;8.578;2023-03-05T20:19:37;4.60;99.90
23556;DHT22;11956;53.184;8.578;2023-03-05T20:22:44;4.60;99.90
23556;DHT22;11956;53.184;8.578;2023-03-05T20:25:46;4.60;99.90
23556;DHT22;11956;53.184;8.578;2023-03-05T20:28:48;4.50;99.90
23556;DHT22;11956;53.184;8.578;2023-03-05T20:31:51;4.50;99.90
23556;DHT22;11956;53.184;8.578;2023-03-05T20:34:52;4.50;99.90
23556;DHT22;11956;53.184;8.578;2023-03-05T20:37:57;4.50;99.90
23556;DHT22;11956;53.184;8.578;2023-03-05T20:41:20;4.50;99.90
23556;DHT22;11956;53.184;8.578;2023-03-05T20:44:21;4.60;99.90